Pagrindinis puslapis
METAR-TAF:

METAR-TAF

Oro uostai :

Udontanis, Tailandas

platuma: 17-23N, ilguma: 102-48E, Aukštis: 177 m

Dabartinis oras

Ataskaita buvo paskelbta 32 minutes, ne 02:00 UTC
Vėjas 6 kt iš Rytų
Temperatūra 26°C
Drėgmė 70%
Slėgis 1016 hPa
Matomumas 10 km arba daugiau
Mažai debesys ne aukštis 2000 ft
Su prošvaistėmis ne aukštis 4500 ft

METAR: VTUD 090200Z 09006KT 9999 FEW020 BKN045 26/20 Q1016 NOSIG

Laikas: 09:32 (02:32 UTC)

Prognozė

Ataskaita buvo paskelbta 3 valandos ir 32 minutes, ne 23:00 UTC
Prognozė galioja nuo 09 metu 00 UTC su 09 metu 24 UTC
Vėjas 5 kt iš Rytų
Matomumas: 9000 m
Mažai debesys ne aukštis 3000 ft
Laikinai
nuo 09 metu 04 UTC su 09 metu 10 UTC
Vėjas 15 kt nuo kintamojo kryptimis
Matomumas: 5000 m
Mažai debesys ne aukštis 1800 ft, Liūtiniai kamuoliniai debesys.
Su prošvaistėmis ne aukštis 2000 ft
Su prošvaistėmis ne aukštis 10000 ft
perkūnija, lietus

TAF: VTUD 082300Z 0900/0924 09005KT 9000 FEW030 TEMPO 0904/0910 VRB15KT 5000 TSRA FEW018CB BKN020 BKN100

Orai ataskaitas ir orų prognozės (METAR, TAF).

turimą stotys yra geltonos ir raudonos taškus žemėlapyje.

Perkelti pele per norėdami pamatyti stoties vardą.

Tada spustelėkite, norėdami matyti oro stebėjimo ir prognozės.

Norėdami pakeisti žemėlapį: spustelėkite ant žalios mygtukų su juodo kryžiaus žemyn,; žalią mygtuką su brūkšneliu, jei norite nutolinti; arba žalių rodyklių gretimoms žemėlapius.


METAR-TAF: